Station info - map view · info · telemetry · weather · raw · status · beacons · messages · bulletins · browse · moving · my account
Callsign, ship name or locator: Clear       
It is possible to search using wildcards (*?) after a prefix. Example: OH*
APRS station OE1TRB-8 - show graphs
Map loading...
Comment: PicoAPRS by DB1NTO
Mic-E message: En route
Last status: PicoAPRS - World's smallest APRS Transceiver by DB1NTO!
Location: 48°14.12' N 16°25.26' E - locator JN88FF06ML - show map - static map
2.9 miles Northeast bearing 51° from Vienna, Politischer Bezirk Wien (Stadt), Vienna, Austria [?]
4.6 miles Southwest bearing 208° from Gerasdorf bei Wien, Politischer Bezirk Wien Umgebung, Lower Austria, Austria
5.5 miles Southeast bearing 144° from Langenzersdorf, Politischer Bezirk Korneuburg, Lower Austria, Austria
32.1 miles West bearing 281° from Bratislava, Bratislavský, Slovakia
Last position: 2020-01-20 03:00:08 EST (12h41m ago)
2020-01-20 09:00:08 CET local time at Vienna, Austria [?]
Altitude: 522 ft
Course: 71°
Speed: 15 MPH
Last path: OE1TRB-8>TX1T12-2 via WIDE1-1,WIDE2-2,qAR,OE1TRB-15 (good)
Positions stored: 43182
Packet rate: 45 seconds between packets on average during 448 seconds.
Other SSIDs: OE1TRB OE1TRB-1 OE1TRB-15 OE1TRB-2 OE1TRB-3 OE1TRB-4 OE1TRB-9
Stations near current position of OE1TRB-8 - show more
callsign distance last heard - EST      callsign distance last heard - EST
ME0139900.4 miles 312°2020-01-19 08:34:38 OE1SOW-90.6 miles 169°2020-01-19 06:41:07
OE1XDT-DP0.6 miles 305°2020-01-20 15:27:55 PS-OE1XDT0.6 miles 304°2020-01-20 14:01:57
OE1FUC-70.7 miles 275°2020-01-20 13:42:25 VINDOBONA0.9 miles 225°2020-01-20 15:38:43
WIEN0.9 miles 218°2020-01-20 15:38:43 WIEN1.0 miles 209°2020-01-20 15:11:43
OE4KMU-91.0 miles 234°2020-01-19 23:48:36 POLIZEI WIEN1.0 miles 208°2020-01-20 15:32:43
DUERNSTEIN1.1 miles 200°2020-01-20 15:36:43 DTSG 11.1 miles 262°2020-01-20 15:30:43
DONAUPLUS1.1 miles 262°2020-01-20 15:36:43 WACHAU1.1 miles 196°2020-01-20 15:23:43
WIENTANK 11.1 miles 193°2020-01-20 15:32:43 FEUERWEHR WIEN 21.2 miles 189°2020-01-20 15:30:43
FEUERWEHR WIEN 31.2 miles 189°2020-01-16 09:02:59 OE3PKW-121.3 miles 186°2019-12-21 16:25:02
OE3CRD-91.6 miles 233°2020-01-16 12:39:26 MURA TARA1.7 miles 290°2020-01-20 15:11:43
Stations which heard OE1TRB-8 directly on radio –
callsign pkts first heard - EST last heard longest (tx => rx) longest at - EST
OE1XQR 379 2020-01-01 08:55:39 2020-01-20 02:59:39 JN88DA > JN88EE 12.0 miles 18° 2020-01-19 13:21:57
OE6XTR 154 2020-01-01 09:04:46 2020-01-19 13:34:26 JN88EG > JN77VN 54.3 miles 211° 2020-01-12 13:54:44
S59DXX-2 105 2020-01-01 09:01:18 2020-01-20 02:57:44 JN88EG > JN76TM 125.5 miles 197° 2020-01-19 06:53:26
S55YBO-2 153 2020-01-01 08:55:44 2020-01-19 13:43:55 JN88EF > JN76TG 140.3 miles 196° 2020-01-15 02:48:58
OE1SSU-10 47 2020-01-01 09:09:47 2020-01-19 13:31:28 JN87CW > JN88DD 13.5 miles 14° 2020-01-18 15:01:21
IR3DM-11 13 2020-01-01 09:17:42 2020-01-19 13:21:29 JN88EG > JN65DE 287.2 miles 224° 2020-01-07 15:26:46
OE1XDS-10 141 2020-01-01 08:59:14 2020-01-20 02:55:08 JN87CV > JN88EF 24.2 miles 14° 2020-01-11 05:53:11
OE1IWA-10 52 2020-01-01 09:04:15 2020-01-19 13:33:59 JN88EE > JN88ED 3.3 miles 225° 2020-01-18 04:28:53
OE3XIA-10 80 2020-01-01 09:12:48 2020-01-20 02:52:40 JN88DA > JN88CF 16.5 miles 348° 2020-01-18 04:41:56
OE3XTR-2 26 2020-01-05 08:47:59 2020-01-11 07:04:54 JN87CU > JN87AT 9.9 miles 254° 2020-01-11 06:02:18
OE1IWA-11 58 2020-01-01 09:05:46 2020-01-19 13:32:28 JN88FF > JN88ED 6.6 miles 221° 2020-01-05 07:33:31
OE1TRB-15 234 2020-01-01 08:53:08 2020-01-20 03:00:08 JN88EE > JN88EF 5.3 miles 347° 2020-01-11 15:45:34
OE3TRB-15 106 2020-01-01 09:20:20 2020-01-19 11:59:50 JN87CU > JN87BW 8.2 miles 317° 2020-01-11 06:47:15
OE3PAS-15 89 2020-01-01 09:14:52 2020-01-19 13:22:00 JN87AW > JN87DX 10.5 miles 68° 2020-01-07 09:45:30
OE3BUB-10 15 2020-01-01 13:41:09 2020-01-19 13:48:36 JN88EE > JN88FG 8.7 miles 18° 2020-01-19 13:34:59
OE3PDB-10 11 2020-01-03 07:58:15 2020-01-19 13:28:57 JN88DC > JN88BG 14.0 miles 311° 2020-01-19 13:28:57
OE3KJN-10 1 2020-01-03 14:18:15 2020-01-03 14:18:15 JN87BW > JN87EX 11.2 miles 88° 2020-01-03 14:18:15
OE1XJW-10 26 2020-01-01 13:13:32 2020-01-19 13:27:27 JN87BW > JN88EG 24.5 miles 27° 2020-01-01 13:13:32
OE3ELJ-15 90 2020-01-01 09:19:19 2020-01-19 13:17:25 JN87BW > JN87CW 4.7 miles 112° 2020-01-19 12:02:51
OE3XXI 4 2020-01-07 15:21:16 2020-01-18 15:18:55 JN88EF > JN88HE 13.9 miles 110° 2020-01-09 05:19:46
S5YKO-2 130 2020-01-01 09:11:56 2020-01-20 02:57:43 JN88EG > JN76LL 138.9 miles 209° 2020-01-18 04:20:34
OE3XPA-10 2 2020-01-19 07:17:28 2020-01-19 13:17:55 JN87CW > JN78SB 32.3 miles 283° 2020-01-19 13:17:55
OE1XUR-10 206 2020-01-01 09:01:15 2020-01-19 13:42:01 JN87CU > JN88ED 22.2 miles 25° 2020-01-05 14:16:22
OE1XUR 288 2020-01-01 09:04:16 2020-01-19 13:48:36 JN87CU > JN88ED 22.2 miles 25° 2020-01-05 14:16:22

Only position packets which were originated by the station are shown here. The range statistics show some extra long hops, because some digipeaters do not correctly add themselves to the digipeater path. Please check the raw packets.
About this site
This page shows real-time information collected from the Automatic Position Reporting System Internet network (APRS-IS). APRS is used by amateur (ham) radio operators to transmit real-time position information, weather data, telemetry and messages over the radio. A vehicle equipped with a GPS receiver, a VHF transmitter or HF transceiver and a small computer device called a tracker transmits it's location, speed and course in a small data packet, which is then received by a nearby iGate receiving site which forwards the packet on the Internet. Systems connected to the Internet can send information on the APRS-IS without a radio transmitter, or collect and display information transmitted anywhere in the world.
User guide · FAQ · Blog · Discussion group · Linking to aprs.fi · AIS sites · Service status · Database statistics · Advertising on aprs.fi · Technical details · API · Change log · Planned changes · Credits and thanks · Terms Of Service · iPhone/iPad APRS